Time;durP1;ratioP1;P1;durP2;ratioP2;P2;SDS_P1;SDS_P2;PMS_P1;PMS_P2;Temp;Humidity;BMP_temperature;BMP_pressure;BME280_temperature;BME280_humidity;BME280_pressure;Samples;Min_cycle;Max_cycle;Signal;HPM_P1;HPM_P2
2023/06/21 00:00:39;;;;;;;37.20;31.55;;;19.80;93.30;;;;;;5115197;28;20039;-76
2023/06/21 00:03:05;;;;;;;38.08;31.85;;;19.70;93.50;;;;;;5132663;28;20042;-75
2023/06/21 00:05:31;;;;;;;40.33;31.58;;;19.60;93.80;;;;;;5098594;28;20491;-76
2023/06/21 00:07:57;;;;;;;40.10;33.22;;;19.70;93.60;;;;;;5132423;28;20521;-76
2023/06/21 00:10:24;;;;;;;35.10;30.65;;;19.60;93.70;;;;;;5132271;28;20047;-76
2023/06/21 00:12:50;;;;;;;40.38;33.03;;;19.60;93.90;;;;;;5132571;28;20039;-76
2023/06/21 00:15:16;;;;;;;36.92;30.73;;;19.50;93.90;;;;;;5132351;28;20042;-76
2023/06/21 00:17:42;;;;;;;37.00;30.38;;;19.50;93.80;;;;;;5132289;28;20036;-76
2023/06/21 00:20:10;;;;;;;42.80;31.27;;;19.50;93.70;;;;;;5115156;28;20035;-76
2023/06/21 00:22:37;;;;;;;36.35;28.95;;;19.50;93.70;;;;;;5115218;28;20039;-76
2023/06/21 00:25:03;;;;;;;37.38;31.95;;;19.50;93.70;;;;;;5132286;28;20027;-77
2023/06/21 00:27:29;;;;;;;33.75;26.95;;;19.60;93.50;;;;;;5098298;27;20452;-76
2023/06/21 00:29:54;;;;;;;37.33;30.48;;;19.60;93.30;;;;;;5118203;27;20043;-76
2023/06/21 00:32:20;;;;;;;35.47;29.50;;;19.50;93.30;;;;;;5136070;27;20168;-76
2023/06/21 00:34:47;;;;;;;34.60;27.75;;;19.60;93.30;;;;;;5118744;27;20388;-76
2023/06/21 00:37:16;;;;;;;33.70;25.77;;;19.50;93.50;;;;;;5135912;27;20448;-76
2023/06/21 00:39:42;;;;;;;33.58;28.85;;;19.60;93.40;;;;;;5118571;27;20035;-76
2023/06/21 00:42:08;;;;;;;40.65;29.58;;;19.60;93.20;;;;;;5135782;27;20043;-76
2023/06/21 00:44:35;;;;;;;37.67;29.48;;;19.60;93.10;;;;;;5119018;27;20062;-76
2023/06/21 00:47:00;;;;;;;38.88;30.92;;;19.60;92.90;;;;;;5101532;27;20038;-76
2023/06/21 00:49:27;;;;;;;39.67;30.73;;;19.60;92.90;;;;;;5135669;27;20045;-76
2023/06/21 00:51:57;;;;;;;40.67;32.75;;;19.60;92.80;;;;;;5135599;27;20483;-76
2023/06/21 00:54:26;;;;;;;35.42;29.20;;;19.60;92.90;;;;;;5135612;27;20043;-76
2023/06/21 00:56:53;;;;;;;36.72;29.80;;;19.60;92.70;;;;;;5135366;27;20039;-76
2023/06/21 00:59:19;;;;;;;36.53;31.92;;;19.60;92.30;;;;;;5135571;27;20495;-76
2023/06/21 01:01:46;;;;;;;37.15;32.92;;;19.60;92.60;;;;;;5135339;27;20475;-76
2023/06/21 01:04:12;;;;;;;37.47;33.45;;;19.60;92.60;;;;;;5135440;27;20031;-76
2023/06/21 01:07:03;;;;;;;37.78;33.78;;;19.50;92.30;;;;;;5135234;27;20085;-76
2023/06/21 01:09:49;;;;;;;38.05;32.70;;;19.60;92.00;;;;;;5135357;27;20117;-76
2023/06/21 01:12:31;;;;;;;36.78;32.72;;;19.50;92.10;;;;;;5135213;27;20043;-76
2023/06/21 01:15:03;;;;;;;41.40;34.90;;;19.50;92.00;;;;;;5135134;27;20069;-76
2023/06/21 01:17:33;;;;;;;37.72;33.53;;;19.40;92.00;;;;;;5135149;27;20051;-76
2023/06/21 01:20:00;;;;;;;40.42;34.70;;;19.30;92.10;;;;;;5135196;27;20038;-77
2023/06/21 01:22:59;;;;;;;37.30;33.10;;;19.30;92.00;;;;;;5135063;27;20083;-76
2023/06/21 01:26:02;;;;;;;41.55;35.13;;;19.20;92.00;;;;;;5135007;27;20039;-76
2023/06/21 01:28:47;;;;;;;43.03;35.35;;;19.20;92.10;;;;;;5134806;27;20059;-77
2023/06/21 01:31:15;;;;;;;43.78;36.20;;;19.10;92.50;;;;;;5117729;27;20054;-77
2023/06/21 01:33:41;;;;;;;43.67;35.83;;;19.00;92.70;;;;;;5117924;27;20085;-76
2023/06/21 01:36:09;;;;;;;45.45;35.45;;;19.00;92.50;;;;;;5134920;27;20168;-76
2023/06/21 01:38:34;;;;;;;40.63;36.28;;;19.00;92.60;;;;;;5134541;27;20483;-76
2023/06/21 01:41:01;;;;;;;41.67;35.22;;;19.00;92.50;;;;;;5117421;27;20046;-76
2023/06/21 01:43:29;;;;;;;44.78;37.30;;;19.00;92.50;;;;;;5117673;27;20068;-76
2023/06/21 01:45:56;;;;;;;42.97;36.10;;;18.90;93.20;;;;;;5134523;27;20106;-76
2023/06/21 01:48:23;;;;;;;47.22;38.35;;;18.90;93.20;;;;;;5134644;27;20372;-76
2023/06/21 01:50:50;;;;;;;45.30;37.80;;;18.90;93.40;;;;;;5134553;27;20394;-76
2023/06/21 01:53:18;;;;;;;45.90;38.33;;;18.80;93.60;;;;;;5117106;27;20126;-76
2023/06/21 01:55:48;;;;;;;45.75;37.08;;;18.80;93.40;;;;;;5134169;27;20031;-76
2023/06/21 01:58:15;;;;;;;43.72;37.60;;;18.80;93.60;;;;;;5134406;27;20039;-77
2023/06/21 02:00:42;;;;;;;45.25;37.03;;;18.80;93.50;;;;;;5117754;27;20070;-76
2023/06/21 02:03:10;;;;;;;43.92;36.22;;;18.80;93.20;;;;;;5134424;27;20035;-76
2023/06/21 02:05:36;;;;;;;45.97;38.17;;;18.80;93.00;;;;;;5117664;27;20058;-76
2023/06/21 02:08:07;;;;;;;44.97;36.78;;;18.80;93.10;;;;;;5117031;27;20042;-76
2023/06/21 02:10:32;;;;;;;48.63;39.22;;;18.80;93.00;;;;;;5116679;27;20031;-76
2023/06/21 02:12:58;;;;;;;47.17;38.22;;;18.80;92.90;;;;;;5133852;27;20088;-76
2023/06/21 02:15:24;;;;;;;47.72;38.03;;;18.80;92.80;;;;;;5134035;27;20039;-76
2023/06/21 02:17:51;;;;;;;42.95;36.22;;;18.80;93.10;;;;;;5133670;27;20046;-76
2023/06/21 02:20:19;;;;;;;43.83;35.85;;;18.70;93.10;;;;;;5133683;27;20122;-76
2023/06/21 02:22:45;;;;;;;48.15;38.85;;;18.80;92.90;;;;;;5116418;27;20043;-76
2023/06/21 02:25:12;;;;;;;50.85;39.42;;;18.70;92.90;;;;;;5116478;27;20047;-76
2023/06/21 02:27:39;;;;;;;51.60;38.72;;;18.70;93.00;;;;;;5133702;27;20483;-77
2023/06/21 02:30:09;;;;;;;46.83;34.80;;;18.60;93.10;;;;;;5133932;27;20556;-76
2023/06/21 02:32:35;;;;;;;47.20;37.95;;;18.70;93.10;;;;;;5133884;27;20538;-77
2023/06/21 02:35:01;;;;;;;44.35;34.78;;;18.70;93.00;;;;;;5116629;27;20039;-76
2023/06/21 02:37:28;;;;;;;46.60;35.15;;;18.70;93.20;;;;;;5134118;27;20031;-77
2023/06/21 02:39:54;;;;;;;40.88;32.83;;;18.70;93.10;;;;;;5133632;27;20092;-76
2023/06/21 02:42:20;;;;;;;39.90;32.75;;;18.70;93.40;;;;;;5133627;27;20035;-76
2023/06/21 02:44:46;;;;;;;40.25;30.65;;;18.70;93.00;;;;;;5116555;27;20043;-76
2023/06/21 02:47:11;;;;;;;42.38;31.45;;;18.60;93.10;;;;;;5116419;27;20043;-76
2023/06/21 02:49:38;;;;;;;37.03;30.10;;;18.60;93.10;;;;;;5099604;27;20035;-77
2023/06/21 02:52:04;;;;;;;39.58;29.95;;;18.60;93.00;;;;;;5116330;27;20383;-77
2023/06/21 02:54:30;;;;;;;35.78;28.35;;;18.60;93.10;;;;;;5133371;27;20035;-77
2023/06/21 02:56:56;;;;;;;41.70;29.48;;;18.60;93.10;;;;;;5116501;27;20047;-77
2023/06/21 02:59:23;;;;;;;37.58;28.58;;;18.60;93.00;;;;;;5099580;27;20050;-77
2023/06/21 03:01:49;;;;;;;35.92;28.23;;;18.60;92.90;;;;;;5116703;27;20042;-77
2023/06/21 03:04:21;;;;;;;38.38;30.35;;;18.60;93.20;;;;;;5116198;27;20039;-76
2023/06/21 03:06:47;;;;;;;40.80;29.90;;;18.50;93.10;;;;;;5115362;28;20067;-77
2023/06/21 03:09:13;;;;;;;38.17;28.95;;;18.50;93.20;;;;;;5115640;28;20039;-76
2023/06/21 03:11:38;;;;;;;38.53;29.02;;;18.50;93.00;;;;;;5115470;27;20066;-76
2023/06/21 03:14:04;;;;;;;40.72;30.17;;;18.50;93.10;;;;;;5133100;27;20031;-76
2023/06/21 03:16:30;;;;;;;41.80;29.80;;;18.50;92.80;;;;;;5100146;27;20043;-76
2023/06/21 03:18:56;;;;;;;37.08;27.45;;;18.50;93.10;;;;;;5117439;27;20039;-76
2023/06/21 03:21:22;;;;;;;40.97;29.83;;;18.50;93.00;;;;;;5117769;27;20099;-76
2023/06/21 03:23:49;;;;;;;37.88;27.25;;;18.40;93.00;;;;;;5134450;28;20065;-75
2023/06/21 03:26:15;;;;;;;37.88;27.40;;;18.40;93.00;;;;;;5132965;28;20107;-76
2023/06/21 03:28:43;;;;;;;33.60;26.33;;;18.30;93.30;;;;;;5116018;28;20051;-76
2023/06/21 03:31:08;;;;;;;35.90;26.73;;;18.30;93.20;;;;;;5133263;28;20395;-76
2023/06/21 03:33:34;;;;;;;39.22;28.35;;;18.20;93.20;;;;;;5132754;28;20039;-76
2023/06/21 03:36:00;;;;;;;32.38;24.58;;;18.20;93.20;;;;;;5115957;28;20074;-76
2023/06/21 03:38:25;;;;;;;35.97;26.20;;;18.30;92.90;;;;;;5115914;28;20039;-76
2023/06/21 03:40:51;;;;;;;36.00;25.40;;;18.20;93.00;;;;;;5099241;28;20040;-76
2023/06/21 03:43:17;;;;;;;36.28;26.15;;;18.20;93.00;;;;;;5098692;28;20506;-76
2023/06/21 03:45:43;;;;;;;32.90;24.63;;;18.20;92.90;;;;;;5132485;28;20039;-75
2023/06/21 03:48:09;;;;;;;35.85;25.85;;;18.10;93.20;;;;;;5132828;28;20092;-76
2023/06/21 03:50:34;;;;;;;35.65;24.75;;;18.10;92.80;;;;;;5132319;28;20122;-76
2023/06/21 03:53:00;;;;;;;33.45;25.20;;;18.10;93.20;;;;;;5132488;28;20031;-76
2023/06/21 03:55:26;;;;;;;33.88;24.98;;;18.10;93.10;;;;;;5115738;28;20406;-75
2023/06/21 03:57:51;;;;;;;33.85;22.98;;;18.00;93.10;;;;;;5132610;28;20491;-76
2023/06/21 04:00:17;;;;;;;32.75;20.95;;;18.00;93.00;;;;;;5132282;28;20043;-77
2023/06/21 04:02:46;;;;;;;27.83;21.63;;;18.10;92.90;;;;;;5099662;27;20398;-76
2023/06/21 04:05:12;;;;;;;37.95;24.48;;;18.10;92.90;;;;;;5136399;27;20039;-76
2023/06/21 04:07:41;;;;;;;38.13;23.75;;;18.10;92.90;;;;;;5119315;27;20116;-76
2023/06/21 04:10:09;;;;;;;32.03;23.20;;;18.10;92.80;;;;;;5136580;27;20035;-76
2023/06/21 04:12:35;;;;;;;31.80;23.23;;;18.20;92.70;;;;;;5102678;27;20042;-76
2023/06/21 04:15:03;;;;;;;35.13;23.33;;;18.10;92.60;;;;;;5136460;27;20046;-77
2023/06/21 04:17:29;;;;;;;34.15;23.58;;;18.10;92.60;;;;;;5136449;27;20126;-77
2023/06/21 04:19:55;;;;;;;32.50;23.13;;;18.00;92.80;;;;;;5119161;27;20075;-77
2023/06/21 04:22:23;;;;;;;31.25;22.00;;;17.90;92.90;;;;;;5136469;27;20042;-78
2023/06/21 04:24:49;;;;;;;30.80;21.88;;;18.00;92.50;;;;;;5119417;27;20039;-78
2023/06/21 04:27:15;;;;;;;28.67;21.08;;;18.00;92.50;;;;;;5118949;27;20051;-78
2023/06/21 04:29:41;;;;;;;26.52;20.00;;;18.00;92.60;;;;;;5136214;27;20042;-79
2023/06/21 04:32:10;;;;;;;27.88;20.42;;;18.00;92.50;;;;;;5119345;27;20088;-77
2023/06/21 04:34:36;;;;;;;29.35;20.00;;;18.00;92.30;;;;;;5119036;27;20076;-78
2023/06/21 04:37:05;;;;;;;23.20;18.88;;;18.10;92.00;;;;;;5119429;27;20043;-77
2023/06/21 04:39:31;;;;;;;23.40;17.52;;;18.00;92.30;;;;;;5131652;27;20042;-76
2023/06/21 04:41:58;;;;;;;23.83;17.13;;;18.10;92.10;;;;;;5098750;28;20058;-77
2023/06/21 04:44:24;;;;;;;27.52;18.60;;;18.10;92.10;;;;;;5081844;28;20046;-78
2023/06/21 04:46:50;;;;;;;28.15;18.40;;;18.10;92.00;;;;;;5065043;28;20044;-78
2023/06/21 04:49:17;;;;;;;24.10;18.05;;;18.10;92.00;;;;;;5081356;28;20101;-78
2023/06/21 04:51:43;;;;;;;22.92;17.17;;;18.20;92.10;;;;;;5098816;28;20039;-78
2023/06/21 04:54:09;;;;;;;25.27;17.77;;;18.20;92.10;;;;;;5081887;28;20050;-77
2023/06/21 04:56:38;;;;;;;25.75;18.88;;;18.20;92.20;;;;;;5115715;28;20600;-77
2023/06/21 04:59:03;;;;;;;25.33;19.08;;;18.20;92.20;;;;;;5098320;28;20050;-77
2023/06/21 05:01:31;;;;;;;25.23;16.77;;;18.20;92.10;;;;;;5097795;28;20040;-76
2023/06/21 05:03:56;;;;;;;22.45;17.17;;;18.20;92.30;;;;;;5098490;28;20096;-77
2023/06/21 05:06:25;;;;;;;25.65;17.27;;;18.10;92.50;;;;;;5115146;28;20039;-77
2023/06/21 05:08:51;;;;;;;24.98;18.33;;;18.20;92.30;;;;;;5114947;28;20119;-77
2023/06/21 05:11:18;;;;;;;24.02;17.52;;;18.20;92.30;;;;;;5098076;28;20096;-77
2023/06/21 05:13:44;;;;;;;25.55;19.08;;;18.30;92.20;;;;;;5114603;28;20488;-76
2023/06/21 05:16:10;;;;;;;21.10;15.52;;;18.30;92.20;;;;;;5114564;28;20088;-77
2023/06/21 05:18:35;;;;;;;30.55;18.98;;;18.40;92.20;;;;;;5114745;28;20048;-77
2023/06/21 05:21:02;;;;;;;23.27;17.08;;;18.50;92.10;;;;;;5097801;28;20092;-78
2023/06/21 05:23:27;;;;;;;22.60;16.77;;;18.50;92.10;;;;;;5114597;28;20043;-77
2023/06/21 05:25:53;;;;;;;24.10;16.40;;;18.50;91.80;;;;;;5097601;28;20036;-78
2023/06/21 05:28:18;;;;;;;24.95;18.83;;;18.60;92.00;;;;;;5114628;28;20058;-77
2023/06/21 05:30:44;;;;;;;26.23;17.67;;;18.60;91.90;;;;;;5114547;28;20130;-77
2023/06/21 05:33:10;;;;;;;24.55;17.42;;;18.70;91.60;;;;;;5115080;28;20126;-76
2023/06/21 05:35:35;;;;;;;29.17;18.80;;;18.70;91.80;;;;;;5097912;28;20036;-77
2023/06/21 05:38:01;;;;;;;25.48;17.27;;;18.80;91.80;;;;;;5097639;28;20544;-77
2023/06/21 05:40:27;;;;;;;26.23;19.75;;;18.90;91.70;;;;;;5114383;28;20035;-77
2023/06/21 05:42:53;;;;;;;27.58;19.42;;;18.90;91.40;;;;;;5114308;28;20039;-77
2023/06/21 05:45:20;;;;;;;25.88;21.70;;;19.00;91.30;;;;;;5080463;28;20066;-77
2023/06/21 05:47:45;;;;;;;23.67;18.40;;;19.00;91.10;;;;;;5114093;28;20039;-77
2023/06/21 05:50:11;;;;;;;25.95;19.95;;;19.10;90.70;;;;;;5114064;28;20039;-77
2023/06/21 05:52:37;;;;;;;26.55;20.42;;;19.20;90.10;;;;;;5114349;28;20078;-79
2023/06/21 05:55:03;;;;;;;24.85;19.92;;;19.20;90.50;;;;;;5114549;28;20089;-81
2023/06/21 05:57:29;;;;;;;21.60;16.48;;;19.20;90.20;;;;;;5114376;28;20463;-77
2023/06/21 05:59:55;;;;;;;20.13;16.48;;;19.30;90.40;;;;;;5097003;28;20043;-80
2023/06/21 06:02:21;;;;;;;18.58;16.35;;;19.30;89.80;;;;;;5114324;28;20096;-78
2023/06/21 06:04:48;;;;;;;19.17;16.23;;;19.40;89.40;;;;;;5080153;28;20040;-79
2023/06/21 06:07:14;;;;;;;21.35;14.88;;;19.40;89.40;;;;;;5114015;28;20043;-79
2023/06/21 06:09:39;;;;;;;20.30;14.70;;;19.40;89.10;;;;;;5113926;28;20065;-80
2023/06/21 06:12:05;;;;;;;18.15;13.93;;;19.50;89.10;;;;;;5080238;28;20071;-81
2023/06/21 06:14:31;;;;;;;15.18;11.32;;;19.60;89.00;;;;;;5096890;28;20484;-77
2023/06/21 06:16:57;;;;;;;14.45;11.63;;;19.70;88.00;;;;;;5113592;28;20082;-77
2023/06/21 06:19:22;;;;;;;20.13;14.00;;;19.70;87.30;;;;;;5114954;28;20503;-77
2023/06/21 06:21:48;;;;;;;21.63;14.05;;;19.90;86.90;;;;;;5079907;28;20047;-76
2023/06/21 06:24:14;;;;;;;13.65;11.75;;;19.90;87.40;;;;;;5079471;28;20039;-77
2023/06/21 06:26:40;;;;;;;15.50;12.57;;;19.90;87.20;;;;;;5095269;28;20066;-77
2023/06/21 06:29:05;;;;;;;14.57;11.68;;;19.90;86.90;;;;;;5079497;28;20063;-81
2023/06/21 06:31:31;;;;;;;15.48;11.52;;;20.00;85.90;;;;;;5079431;28;20040;-77
2023/06/21 06:33:57;;;;;;;13.70;11.65;;;20.00;85.80;;;;;;5113479;28;20032;-79
2023/06/21 06:36:22;;;;;;;13.80;11.52;;;20.00;85.70;;;;;;5096528;28;20046;-79
2023/06/21 06:38:49;;;;;;;17.23;11.52;;;20.10;85.60;;;;;;5113765;28;20043;-80
2023/06/21 06:41:15;;;;;;;12.82;11.18;;;20.10;85.80;;;;;;5096919;28;20043;-79
2023/06/21 06:43:41;;;;;;;16.65;10.98;;;20.20;85.40;;;;;;5096953;28;20368;-79
2023/06/21 06:46:06;;;;;;;13.55;9.93;;;20.20;84.60;;;;;;5113379;28;20050;-79
2023/06/21 06:48:32;;;;;;;15.38;11.02;;;20.30;84.80;;;;;;5113489;28;20065;-78
2023/06/21 06:50:58;;;;;;;18.75;10.07;;;20.20;85.20;;;;;;5113697;28;20465;-79
2023/06/21 06:53:24;;;;;;;13.95;9.75;;;20.20;85.20;;;;;;5079656;28;20118;-79
2023/06/21 06:55:51;;;;;;;13.57;10.65;;;20.20;85.20;;;;;;5112881;28;20105;-80
2023/06/21 06:58:18;;;;;;;15.82;10.60;;;20.20;85.00;;;;;;5079694;28;20089;-80
2023/06/21 07:00:44;;;;;;;15.75;10.80;;;20.30;84.90;;;;;;5079289;28;20035;-80
2023/06/21 07:03:09;;;;;;;15.93;9.82;;;20.30;85.00;;;;;;5079394;28;20036;-80
2023/06/21 07:05:35;;;;;;;12.32;9.38;;;20.40;84.80;;;;;;5096239;28;20036;-79
2023/06/21 07:08:03;;;;;;;14.52;9.63;;;20.40;84.80;;;;;;5113076;28;20149;-79
2023/06/21 07:10:29;;;;;;;13.75;8.00;;;20.40;84.90;;;;;;5095995;28;20035;-79
2023/06/21 07:12:54;;;;;;;10.80;8.55;;;20.50;84.70;;;;;;5079373;28;20042;-79
2023/06/21 07:15:20;;;;;;;9.90;8.05;;;20.50;84.30;;;;;;5096269;28;20535;-79
2023/06/21 07:17:46;;;;;;;13.77;9.77;;;20.60;84.10;;;;;;5062762;28;20122;-79
2023/06/21 07:20:11;;;;;;;12.38;9.00;;;20.60;84.00;;;;;;5096314;28;20051;-79
2023/06/21 07:22:37;;;;;;;17.10;10.95;;;20.60;83.90;;;;;;5112692;28;20046;-78
2023/06/21 07:25:03;;;;;;;11.30;9.10;;;20.60;83.80;;;;;;5112666;28;20043;-78
2023/06/21 07:27:29;;;;;;;11.60;7.90;;;20.60;84.00;;;;;;5095529;28;20052;-79
2023/06/21 07:29:55;;;;;;;11.63;8.88;;;20.60;83.90;;;;;;5112845;28;20047;-79
2023/06/21 07:32:21;;;;;;;14.48;8.77;;;20.70;83.30;;;;;;5096194;28;20081;-80
2023/06/21 07:34:46;;;;;;;12.20;8.95;;;20.70;83.70;;;;;;5112550;28;20484;-79
2023/06/21 07:37:12;;;;;;;13.32;8.25;;;20.70;83.60;;;;;;5113143;28;20082;-79
2023/06/21 07:39:38;;;;;;;12.07;8.40;;;20.80;83.40;;;;;;5099901;28;20130;-79
2023/06/21 07:42:04;;;;;;;11.63;9.07;;;20.90;83.30;;;;;;5083249;28;20137;-80
2023/06/21 07:44:31;;;;;;;9.88;8.25;;;21.00;83.10;;;;;;5066294;28;20122;-80
2023/06/21 07:46:57;;;;;;;9.57;8.05;;;21.10;82.90;;;;;;5116844;28;20035;-80
2023/06/21 07:49:22;;;;;;;10.05;8.07;;;21.20;81.70;;;;;;5104719;27;20523;-78
2023/06/21 07:51:49;;;;;;;14.75;7.82;;;21.20;81.50;;;;;;5117965;27;20039;-79
2023/06/21 07:54:15;;;;;;;12.68;8.20;;;21.20;81.20;;;;;;5137344;27;20160;-78
2023/06/21 07:56:40;;;;;;;10.18;7.90;;;21.30;81.00;;;;;;5103034;27;20096;-79
2023/06/21 07:59:06;;;;;;;10.32;7.45;;;21.40;80.30;;;;;;5119801;27;20035;-78
2023/06/21 08:01:32;;;;;;;9.45;7.07;;;21.50;80.30;;;;;;5119614;27;20035;-76
2023/06/21 08:03:59;;;;;;;8.93;7.20;;;21.50;78.30;;;;;;5119739;27;20242;-78
2023/06/21 08:06:26;;;;;;;7.82;5.95;;;21.50;78.00;;;;;;5102669;27;20050;-77
2023/06/21 08:08:52;;;;;;;8.00;6.93;;;21.60;78.40;;;;;;5136827;27;20042;-78
2023/06/21 08:11:18;;;;;;;11.23;7.07;;;21.70;78.70;;;;;;5119182;27;20446;-77
2023/06/21 08:13:43;;;;;;;9.95;7.15;;;21.90;77.90;;;;;;5119571;27;20039;-79
2023/06/21 08:16:09;;;;;;;7.40;6.28;;;21.90;77.90;;;;;;5119189;27;20035;-79
2023/06/21 08:18:35;;;;;;;10.25;7.80;;;22.00;76.40;;;;;;5119222;27;20074;-78
2023/06/21 08:21:01;;;;;;;9.75;8.40;;;22.00;76.60;;;;;;5119418;27;20074;-79
2023/06/21 08:23:26;;;;;;;13.98;8.43;;;22.00;76.50;;;;;;5119299;27;20521;-78
2023/06/21 08:25:52;;;;;;;13.32;7.78;;;22.00;75.40;;;;;;5135935;27;20498;-78
2023/06/21 08:28:18;;;;;;;10.73;8.55;;;22.00;76.30;;;;;;5118639;27;20126;-78
2023/06/21 08:30:44;;;;;;;13.38;8.90;;;22.20;76.60;;;;;;5118567;27;20031;-81
2023/06/21 08:33:09;;;;;;;9.15;8.07;;;22.40;76.90;;;;;;5085194;27;20039;-78
2023/06/21 08:35:36;;;;;;;12.95;8.93;;;22.40;76.60;;;;;;5118797;27;20035;-79
2023/06/21 08:38:02;;;;;;;8.85;7.45;;;22.50;76.20;;;;;;5136263;27;20051;-78
2023/06/21 08:40:32;;;;;;;11.32;8.88;;;22.60;74.20;;;;;;5118664;27;20039;-78
2023/06/21 08:43:00;;;;;;;9.93;7.50;;;22.60;74.30;;;;;;5118749;27;20129;-79
2023/06/21 08:45:26;;;;;;;11.23;9.68;;;22.70;74.20;;;;;;5118972;27;20082;-78
2023/06/21 08:47:52;;;;;;;11.57;9.00;;;22.90;74.40;;;;;;5101817;27;20047;-79
2023/06/21 08:50:19;;;;;;;10.07;8.32;;;22.90;74.50;;;;;;5117395;27;20039;-80
2023/06/21 08:52:47;;;;;;;13.68;9.35;;;22.90;73.90;;;;;;5101441;27;20118;-78
2023/06/21 08:55:16;;;;;;;11.48;8.77;;;22.90;73.70;;;;;;5135593;27;20039;-78
2023/06/21 08:57:49;;;;;;;12.52;9.45;;;23.10;73.80;;;;;;5118208;27;20100;-77
2023/06/21 09:00:22;;;;;;;10.88;9.77;;;23.20;71.90;;;;;;5135653;27;20387;-77
2023/06/21 09:03:05;;;;;;;11.45;8.88;;;23.20;72.40;;;;;;5135578;27;20130;-78
2023/06/21 09:06:03;;;;;;;9.18;7.15;;;23.20;71.60;;;;;;5135658;27;20035;-78
2023/06/21 09:08:32;;;;;;;8.80;7.57;;;23.40;70.80;;;;;;5118390;27;20045;-78
2023/06/21 09:10:59;;;;;;;9.27;7.82;;;23.40;71.00;;;;;;5135044;27;20139;-79
2023/06/21 09:13:27;;;;;;;10.85;8.15;;;23.40;70.50;;;;;;5118396;27;20039;-79
2023/06/21 09:15:57;;;;;;;10.30;9.27;;;23.50;70.80;;;;;;5101416;27;20035;-79
2023/06/21 09:18:24;;;;;;;10.82;6.85;;;23.60;71.20;;;;;;5118224;27;20070;-78
2023/06/21 09:20:50;;;;;;;8.00;6.55;;;23.70;70.40;;;;;;5117816;27;20073;-77
2023/06/21 09:23:16;;;;;;;10.77;7.05;;;23.80;70.00;;;;;;5117882;27;20032;-79
2023/06/21 09:25:44;;;;;;;9.32;6.47;;;23.80;69.80;;;;;;5135129;27;20038;-78
2023/06/21 09:28:11;;;;;;;10.75;6.75;;;23.80;69.60;;;;;;5117819;27;20219;-77
2023/06/21 09:30:37;;;;;;;9.13;7.35;;;23.90;68.90;;;;;;5100583;27;20095;-78
2023/06/21 09:33:03;;;;;;;8.55;7.43;;;23.80;69.40;;;;;;5117964;27;20035;-78
2023/06/21 09:35:29;;;;;;;10.18;8.35;;;23.90;69.30;;;;;;5117985;27;20039;-79
2023/06/21 09:37:54;;;;;;;7.63;6.47;;;24.00;69.90;;;;;;5117838;27;20042;-79
2023/06/21 09:40:20;;;;;;;7.65;6.88;;;24.20;68.90;;;;;;5117690;27;20043;-79
2023/06/21 09:42:46;;;;;;;9.05;7.63;;;24.20;69.20;;;;;;5118114;27;20101;-78
2023/06/21 09:45:16;;;;;;;10.45;8.40;;;24.30;67.40;;;;;;5117944;27;20046;-78
2023/06/21 09:47:42;;;;;;;7.93;7.13;;;24.40;68.20;;;;;;5134718;27;20046;-78
2023/06/21 09:50:09;;;;;;;9.43;7.72;;;24.40;67.80;;;;;;5117932;27;20039;-78
2023/06/21 09:52:35;;;;;;;9.73;7.15;;;24.30;67.60;;;;;;5117745;27;20379;-79
2023/06/21 09:55:02;;;;;;;11.38;8.77;;;24.40;68.20;;;;;;5117276;27;20039;-80
2023/06/21 09:57:32;;;;;;;10.32;8.07;;;24.40;67.50;;;;;;5117746;27;20046;-79
2023/06/21 10:00:05;;;;;;;8.63;7.65;;;24.40;67.10;;;;;;5117388;27;20487;-79
2023/06/21 10:02:39;;;;;;;9.87;7.60;;;24.30;67.10;;;;;;5117934;27;20061;-78
2023/06/21 10:05:05;;;;;;;9.48;8.23;;;24.40;67.30;;;;;;5134956;27;20156;-80
2023/06/21 10:07:31;;;;;;;9.98;8.18;;;24.30;67.00;;;;;;5133948;27;20054;-79
2023/06/21 10:10:04;;;;;;;11.00;9.13;;;24.40;66.90;;;;;;5133845;27;20035;-78
2023/06/21 10:12:30;;;;;;;9.25;6.82;;;24.40;67.70;;;;;;5116841;27;20035;-78
2023/06/21 10:14:59;;;;;;;11.48;8.90;;;24.50;68.30;;;;;;5116747;27;20042;-79
2023/06/21 10:17:25;;;;;;;8.88;7.88;;;24.60;66.60;;;;;;5129016;27;20492;-80
2023/06/21 10:19:51;;;;;;;8.57;7.60;;;24.70;66.90;;;;;;5096402;28;20461;-80
2023/06/21 10:22:21;;;;;;;10.05;7.90;;;24.70;66.50;;;;;;5079365;28;20127;-80
2023/06/21 10:24:52;;;;;;;12.55;10.27;;;24.70;65.50;;;;;;5096100;28;20074;-80
2023/06/21 10:27:19;;;;;;;12.98;9.73;;;24.70;66.10;;;;;;5095820;28;20044;-78
2023/06/21 10:29:53;;;;;;;11.57;10.40;;;24.90;65.80;;;;;;5079067;28;20035;-78
2023/06/21 10:32:20;;;;;;;15.55;12.48;;;24.90;65.50;;;;;;5113516;28;20047;-79
2023/06/21 10:35:03;;;;;;;15.35;12.43;;;24.80;65.80;;;;;;5096094;28;20039;-81
2023/06/21 10:37:48;;;;;;;12.95;11.63;;;24.70;66.00;;;;;;5107490;27;20031;-80
2023/06/21 10:40:14;;;;;;;13.45;12.05;;;24.70;65.70;;;;;;5105196;27;20057;-80
2023/06/21 10:42:41;;;;;;;17.17;14.90;;;24.80;65.80;;;;;;5098501;27;20039;-80
2023/06/21 10:45:09;;;;;;;19.00;17.10;;;24.70;65.60;;;;;;5116583;27;20495;-80
2023/06/21 10:47:36;;;;;;;20.20;18.23;;;24.80;65.00;;;;;;5115442;27;20051;-80
2023/06/21 10:50:02;;;;;;;18.58;16.77;;;24.80;65.70;;;;;;5097251;27;20047;-80
2023/06/21 10:52:30;;;;;;;20.02;17.45;;;24.90;65.60;;;;;;5100855;27;20062;-80
2023/06/21 10:55:00;;;;;;;21.25;19.08;;;24.90;64.60;;;;;;5116760;27;20050;-80
2023/06/21 10:57:28;;;;;;;18.35;16.55;;;25.00;63.60;;;;;;5117957;27;20086;-80
2023/06/21 11:00:02;;;;;;;15.55;13.98;;;24.90;63.10;;;;;;5118267;27;20134;-80
2023/06/21 11:02:28;;;;;;;;;;;24.90;62.90;;;;;;5119335;27;20051;-80
2023/06/21 11:05:19;;;;;;;13.50;11.40;;;25.10;63.40;;;;;;5109405;27;19919;-80
2023/06/21 11:07:54;;;;;;;15.20;13.73;;;24.90;61.80;;;;;;5115859;27;20511;-81
2023/06/21 11:10:23;;;;;;;18.40;16.50;;;24.80;62.70;;;;;;5082803;27;20047;-80
2023/06/21 11:12:55;;;;;;;15.40;13.88;;;24.70;63.90;;;;;;5101375;28;20054;-80
2023/06/21 11:15:22;;;;;;;15.00;13.50;;;24.50;64.40;;;;;;5118104;27;20050;-81
2023/06/21 11:18:20;;;;;;;14.30;12.82;;;24.40;64.60;;;;;;5098997;28;20046;-80
2023/06/21 11:20:47;;;;;;;11.25;10.23;;;24.70;64.30;;;;;;5095227;28;20043;-78
2023/06/21 11:23:22;;;;;;;12.77;9.93;;;25.00;63.20;;;;;;5112805;28;20039;-78
2023/06/21 11:26:03;;;;;;;11.73;10.52;;;25.40;62.70;;;;;;5112662;28;20047;-78
2023/06/21 11:28:33;;;;;;;12.63;9.77;;;25.60;62.20;;;;;;5095218;28;20059;-78
2023/06/21 11:30:59;;;;;;;11.20;10.00;;;25.80;60.80;;;;;;5112282;28;20379;-78
2023/06/21 11:33:29;;;;;;;9.10;7.30;;;25.90;60.80;;;;;;5095268;28;20035;-78
2023/06/21 11:36:05;;;;;;;9.38;8.45;;;26.20;59.50;;;;;;5112487;28;20040;-78
2023/06/21 11:38:31;;;;;;;11.27;10.18;;;26.30;58.60;;;;;;5095650;28;20036;-78
2023/06/21 11:40:58;;;;;;;8.25;7.45;;;25.90;59.30;;;;;;5095553;28;20500;-78
2023/06/21 11:43:24;;;;;;;11.18;8.27;;;26.10;58.50;;;;;;5096291;28;20433;-79
2023/06/21 11:46:01;;;;;;;8.65;7.20;;;26.30;58.90;;;;;;5096213;28;20092;-79
2023/06/21 11:48:28;;;;;;;12.07;9.07;;;26.30;59.00;;;;;;5112713;28;20039;-79
2023/06/21 11:50:55;;;;;;;7.97;6.88;;;25.90;58.90;;;;;;5095731;28;20036;-79
2023/06/21 11:53:39;;;;;;;9.90;7.93;;;25.90;59.00;;;;;;5095784;28;20122;-79
2023/06/21 11:56:06;;;;;;;10.80;8.40;;;26.00;59.90;;;;;;5112950;28;20035;-78
2023/06/21 11:58:32;;;;;;;10.88;9.68;;;26.30;59.50;;;;;;5112465;28;20488;-78
2023/06/21 12:00:58;;;;;;;18.65;13.10;;;26.00;60.80;;;;;;5078674;28;20491;-79
2023/06/21 12:03:27;;;;;;;17.50;13.90;;;25.90;62.60;;;;;;5095886;28;20043;-79
2023/06/21 12:05:58;;;;;;;17.30;13.60;;;25.80;64.60;;;;;;5096260;28;20036;-79
2023/06/21 12:08:29;;;;;;;19.95;16.13;;;25.80;66.20;;;;;;5079558;28;20089;-78
2023/06/21 12:11:08;;;;;;;20.20;15.60;;;25.80;67.20;;;;;;5095645;28;20047;-78
2023/06/21 12:13:36;;;;;;;19.90;15.88;;;26.10;67.00;;;;;;5112154;28;20561;-79
2023/06/21 12:16:07;;;;;;;17.95;15.68;;;26.00;67.20;;;;;;5112076;28;20051;-79
2023/06/21 12:18:34;;;;;;;17.02;13.20;;;26.20;67.20;;;;;;5095424;28;20032;-78
2023/06/21 12:21:05;;;;;;;16.65;14.32;;;26.40;66.60;;;;;;5112272;28;20043;-78
2023/06/21 12:23:31;;;;;;;19.73;15.70;;;26.20;66.00;;;;;;5112362;28;20036;-78
2023/06/21 12:26:04;;;;;;;18.00;14.43;;;26.10;66.40;;;;;;5115738;28;20036;-78
2023/06/21 12:28:31;;;;;;;16.73;14.93;;;26.10;66.20;;;;;;5098984;28;20079;-79
2023/06/21 12:31:02;;;;;;;15.43;13.65;;;26.30;66.10;;;;;;5115856;28;20051;-78
2023/06/21 12:33:29;;;;;;;20.65;14.63;;;26.30;65.40;;;;;;5099118;28;20047;-78